Time;durP1;ratioP1;P1;durP2;ratioP2;P2;SDS_P1;SDS_P2;PMS_P1;PMS_P2;Temp;Humidity;BMP_temperature;BMP_pressure;BME280_temperature;BME280_humidity;BME280_pressure;Samples;Min_cycle;Max_cycle;Signal;HPM_P1;HPM_P2
2021/01/26 00:01:00;;;;;;;25.73;12.93;;;0.80;85.80;;;;;;5106411;28;20484;-68
2021/01/26 00:03:26;;;;;;;23.08;12.32;;;0.70;86.00;;;;;;5106253;28;20027;-67
2021/01/26 00:05:52;;;;;;;23.13;12.40;;;0.70;86.70;;;;;;5106338;28;20026;-68
2021/01/26 00:08:19;;;;;;;31.50;13.90;;;0.70;86.10;;;;;;5106191;28;20035;-68
2021/01/26 00:10:45;;;;;;;30.92;16.80;;;0.70;86.10;;;;;;5109640;28;20030;-68
2021/01/26 00:13:11;;;;;;;;;;;0.70;85.70;;;;;;5110775;28;20032;-68
2021/01/26 00:15:37;;;;;;;21.95;9.90;;;0.80;84.90;;;;;;5110766;28;19903;-68
2021/01/26 00:18:03;;;;;;;;;;;0.80;85.00;;;;;;5110693;28;20027;-68
2021/01/26 00:20:29;;;;;;;25.80;12.80;;;0.70;85.60;;;;;;5110448;28;19911;-68
2021/01/26 00:22:54;;;;;;;;;;;0.70;85.80;;;;;;5110635;28;20261;-67
2021/01/26 00:25:26;;;;;;;30.00;13.27;;;0.70;86.40;;;;;;5110791;28;19915;-67
2021/01/26 00:27:52;;;;;;;25.70;13.90;;;0.70;86.50;;;;;;5110442;28;20027;-69
2021/01/26 00:30:19;;;;;;;;;;;0.70;86.80;;;;;;5110084;28;20104;-67
2021/01/26 00:32:45;;;;;;;41.30;19.40;;;0.70;86.70;;;;;;5110084;28;20007;-67
2021/01/26 00:35:11;;;;;;;;;;;0.70;86.90;;;;;;5110483;28;20552;-68
2021/01/26 00:37:37;;;;;;;43.17;19.73;;;0.70;86.80;;;;;;5110027;28;19959;-68
2021/01/26 00:40:03;;;;;;;;;;;0.70;85.90;;;;;;5110714;28;20043;-68
2021/01/26 00:42:29;;;;;;;43.05;21.95;;;0.70;86.20;;;;;;5109914;28;19988;-68
2021/01/26 00:44:54;;;;;;;;;;;0.70;86.60;;;;;;5110603;28;20065;-67
2021/01/26 00:47:20;;;;;;;35.05;16.83;;;0.70;87.20;;;;;;5110202;28;19907;-68
2021/01/26 00:49:46;;;;;;;;;;;0.70;87.30;;;;;;5091157;28;20047;-68
2021/01/26 00:52:11;;;;;;;31.05;15.18;;;0.70;87.70;;;;;;5091975;28;19907;-67
2021/01/26 00:54:37;;;;;;;;;;;0.70;87.60;;;;;;5091575;28;20488;-67
2021/01/26 00:57:04;;;;;;;37.08;18.75;;;0.70;87.90;;;;;;5110019;28;19954;-67
2021/01/26 00:59:30;;;;;;;37.95;17.98;;;0.60;88.00;;;;;;5109940;28;20038;-67
2021/01/26 01:01:57;;;;;;;;;;;0.70;87.90;;;;;;5109820;28;20023;-69
2021/01/26 01:04:23;;;;;;;31.15;14.63;;;0.70;87.40;;;;;;5109578;28;19911;-67
2021/01/26 01:06:48;;;;;;;;;;;0.70;87.60;;;;;;5091862;28;20066;-68
2021/01/26 01:09:14;;;;;;;32.85;15.95;;;0.70;88.10;;;;;;5109264;28;19923;-68
2021/01/26 01:11:40;;;;;;;;;;;0.70;88.10;;;;;;5110360;28;20719;-67
2021/01/26 01:14:05;;;;;;;44.97;20.20;;;0.70;88.40;;;;;;5109733;28;19907;-68
2021/01/26 01:16:31;;;;;;;;;;;0.70;88.00;;;;;;5109928;28;20106;-68
2021/01/26 01:18:56;;;;;;;42.60;19.23;;;0.80;87.60;;;;;;5108841;28;19907;-68
2021/01/26 01:21:22;;;;;;;;;;;0.80;87.30;;;;;;5109669;28;20035;-69
2021/01/26 01:23:47;;;;;;;33.75;16.77;;;0.80;87.50;;;;;;5109559;28;20107;-67
2021/01/26 01:26:13;;;;;;;;;;;0.80;87.70;;;;;;5109466;28;20112;-67
2021/01/26 01:28:39;;;;;;;23.40;12.65;;;0.80;88.00;;;;;;5109145;28;20376;-69
2021/01/26 01:31:04;;;;;;;;;;;0.70;88.10;;;;;;5109586;28;20026;-67
2021/01/26 01:33:31;;;;;;;29.17;15.18;;;0.70;88.60;;;;;;5108503;28;19928;-68
2021/01/26 01:35:56;;;;;;;;;;;0.70;88.80;;;;;;5109080;28;20034;-67
2021/01/26 01:38:22;;;;;;;34.90;16.65;;;0.80;89.20;;;;;;5108930;28;19908;-68
2021/01/26 01:40:50;;;;;;;;;;;0.70;89.00;;;;;;5109559;28;20419;-68
2021/01/26 01:43:16;;;;;;;36.17;16.98;;;0.70;89.30;;;;;;5108713;28;20618;-68
2021/01/26 01:45:41;;;;;;;;;;;0.70;88.90;;;;;;5109047;28;20502;-68
2021/01/26 01:48:28;;;;;;;30.65;15.60;;;0.70;89.00;;;;;;5090237;28;19969;-68
2021/01/26 01:51:17;;;;;;;26.83;15.33;;;0.70;88.80;;;;;;5108607;28;20028;-67
2021/01/26 01:53:53;;;;;;;22.35;13.05;;;0.70;88.60;;;;;;5108936;28;20034;-66
2021/01/26 01:56:25;;;;;;;28.27;13.53;;;0.70;88.60;;;;;;5109219;28;20076;-68
2021/01/26 01:58:56;;;;;;;24.27;13.65;;;0.70;88.90;;;;;;5108382;28;20053;-68
2021/01/26 02:01:25;;;;;;;24.52;14.00;;;0.70;89.10;;;;;;5109390;28;20031;-68
2021/01/26 02:03:55;;;;;;;23.30;13.65;;;0.70;89.30;;;;;;5108238;28;20111;-69
2021/01/26 02:06:25;;;;;;;20.52;12.57;;;0.60;89.20;;;;;;5108169;28;20112;-68
2021/01/26 02:08:59;;;;;;;18.55;11.00;;;0.70;89.30;;;;;;5108281;28;20048;-69
2021/01/26 02:11:25;;;;;;;29.77;15.25;;;0.70;89.30;;;;;;5108492;28;20415;-68
2021/01/26 02:13:50;;;;;;;;;;;0.70;89.30;;;;;;5108689;28;20032;-68
2021/01/26 02:16:43;;;;;;;31.38;17.88;;;0.70;89.30;;;;;;5108380;28;19911;-69
2021/01/26 02:19:29;;;;;;;36.78;18.30;;;0.70;89.50;;;;;;5107882;28;20035;-68
2021/01/26 02:22:32;;;;;;;30.13;16.48;;;0.70;89.50;;;;;;5107749;28;20495;-68
2021/01/26 02:25:12;;;;;;;27.42;12.90;;;0.70;89.50;;;;;;5108324;28;20422;-68
2021/01/26 02:28:16;;;;;;;30.77;17.10;;;0.70;89.20;;;;;;5106434;28;20085;-68
2021/01/26 02:31:00;;;;;;;28.27;14.75;;;0.70;89.30;;;;;;5108123;28;20050;-68
2021/01/26 02:33:56;;;;;;;32.67;16.33;;;0.70;89.00;;;;;;5106948;28;20042;-68
2021/01/26 02:36:59;;;;;;;23.88;13.85;;;0.70;89.10;;;;;;5107585;28;20028;-68
2021/01/26 02:39:51;;;;;;;21.77;11.27;;;0.70;89.10;;;;;;5107471;28;20030;-69
2021/01/26 02:42:41;;;;;;;20.98;12.10;;;0.80;88.60;;;;;;5107523;28;20055;-67
2021/01/26 02:45:52;;;;;;;18.50;10.45;;;0.70;88.80;;;;;;5107693;28;20031;-65
2021/01/26 02:48:34;;;;;;;22.17;11.75;;;0.80;88.90;;;;;;5069090;28;20048;-65
2021/01/26 02:51:17;;;;;;;18.73;10.65;;;0.70;88.80;;;;;;5105821;28;20032;-65
2021/01/26 02:54:20;;;;;;;16.77;9.15;;;0.70;88.90;;;;;;5107271;28;20016;-66
2021/01/26 02:56:54;;;;;;;26.30;12.85;;;0.70;89.00;;;;;;5107747;28;20030;-66
2021/01/26 02:59:23;;;;;;;21.20;10.73;;;0.70;89.20;;;;;;5089118;28;20076;-65
2021/01/26 03:02:03;;;;;;;23.58;11.32;;;0.70;89.10;;;;;;5106617;28;20031;-65
2021/01/26 03:04:57;;;;;;;21.85;10.45;;;0.70;89.10;;;;;;5107641;28;20027;-65
2021/01/26 03:07:25;;;;;;;25.38;12.40;;;0.70;89.20;;;;;;5089744;28;20039;-66
2021/01/26 03:09:59;;;;;;;27.35;13.18;;;0.70;89.20;;;;;;5088436;28;20047;-65
2021/01/26 03:12:33;;;;;;;37.28;17.27;;;0.70;89.30;;;;;;5107379;28;20742;-65
2021/01/26 03:15:14;;;;;;;45.72;21.83;;;0.80;89.30;;;;;;5106729;28;20038;-66
2021/01/26 03:17:45;;;;;;;36.83;16.75;;;0.80;88.80;;;;;;5106535;28;20019;-66
2021/01/26 03:20:28;;;;;;;43.15;18.77;;;0.80;88.80;;;;;;5107256;28;20085;-66
2021/01/26 03:22:58;;;;;;;39.00;17.45;;;0.80;89.10;;;;;;5106814;28;20031;-65
2021/01/26 03:25:26;;;;;;;43.88;21.08;;;0.70;89.50;;;;;;5107055;28;20096;-66
2021/01/26 03:27:59;;;;;;;44.25;21.35;;;0.80;89.40;;;;;;5106596;28;20089;-65
2021/01/26 03:30:31;;;;;;;25.83;13.18;;;0.80;88.90;;;;;;5106646;28;20130;-66
2021/01/26 03:33:04;;;;;;;23.42;11.77;;;0.80;88.40;;;;;;5106719;28;20024;-65
2021/01/26 03:35:29;;;;;;;18.85;9.65;;;0.80;88.40;;;;;;5105322;28;20400;-66
2021/01/26 03:37:58;;;;;;;;;;;0.80;88.20;;;;;;5101923;28;20103;-65
2021/01/26 03:40:24;;;;;;;15.80;8.43;;;0.80;88.40;;;;;;5093387;28;19918;-66
2021/01/26 03:42:50;;;;;;;18.05;9.60;;;0.70;88.40;;;;;;5083576;28;20274;-66
2021/01/26 03:45:16;;;;;;;;;;;0.80;88.60;;;;;;5064677;28;20031;-66
2021/01/26 03:48:02;;;;;;;17.80;9.73;;;0.70;88.80;;;;;;5084470;28;19912;-65
2021/01/26 03:50:31;;;;;;;25.13;13.93;;;0.70;89.10;;;;;;5101707;28;20032;-65
2021/01/26 03:53:23;;;;;;;24.98;12.70;;;0.80;89.10;;;;;;5102173;28;20089;-65
2021/01/26 03:56:01;;;;;;;25.38;14.65;;;0.90;88.50;;;;;;5101751;28;20028;-66
2021/01/26 03:58:47;;;;;;;27.10;12.52;;;0.90;87.80;;;;;;5086584;28;20053;-66
2021/01/26 04:01:43;;;;;;;17.23;10.43;;;0.80;87.90;;;;;;5082838;28;20023;-66
2021/01/26 04:04:34;;;;;;;29.38;16.85;;;0.90;87.70;;;;;;5082996;28;20040;-67
2021/01/26 04:07:03;;;;;;;24.17;13.70;;;0.90;87.70;;;;;;5082332;28;20028;-67
2021/01/26 04:09:47;;;;;;;25.98;14.02;;;0.80;87.70;;;;;;5082632;28;20192;-67
2021/01/26 04:12:21;;;;;;;27.70;13.68;;;0.90;88.00;;;;;;5083133;28;20027;-66
2021/01/26 04:15:12;;;;;;;28.52;13.93;;;0.90;88.00;;;;;;5083493;28;20027;-67
2021/01/26 04:17:44;;;;;;;29.15;16.70;;;0.90;87.80;;;;;;5082659;28;20031;-67
2021/01/26 04:20:25;;;;;;;38.63;20.42;;;1.00;87.30;;;;;;5082867;28;20649;-66
2021/01/26 04:22:53;;;;;;;33.80;15.20;;;1.00;87.10;;;;;;5082639;28;20031;-66
2021/01/26 04:25:28;;;;;;;38.42;18.58;;;1.00;86.50;;;;;;5082497;28;20076;-67
2021/01/26 04:27:53;;;;;;;37.45;17.08;;;1.00;86.60;;;;;;5082394;28;20936;-67
2021/01/26 04:30:19;;;;;;;;;;;1.00;86.30;;;;;;5082766;28;20066;-66
2021/01/26 04:32:45;;;;;;;34.88;16.88;;;1.00;86.20;;;;;;5064513;28;19930;-67
2021/01/26 04:35:11;;;;;;;;;;;1.00;86.40;;;;;;5083636;28;20487;-66
2021/01/26 04:37:36;;;;;;;39.45;15.52;;;1.00;86.40;;;;;;5102390;28;19908;-66
2021/01/26 04:40:05;;;;;;;;;;;1.00;87.00;;;;;;5102949;28;20336;-67
2021/01/26 04:42:35;;;;;;;27.98;15.07;;;1.00;86.20;;;;;;5102695;28;19994;-67
2021/01/26 04:45:13;;;;;;;28.23;13.57;;;1.00;86.00;;;;;;5103116;28;20088;-67
2021/01/26 04:48:03;;;;;;;28.08;13.73;;;1.00;85.80;;;;;;5102232;28;20027;-66
2021/01/26 04:50:53;;;;;;;18.95;9.82;;;1.00;85.80;;;;;;5102414;28;20059;-67
2021/01/26 04:53:57;;;;;;;21.00;11.68;;;1.00;85.40;;;;;;5102174;28;20027;-67
2021/01/26 04:56:30;;;;;;;20.88;10.50;;;1.10;85.30;;;;;;5104092;28;20471;-67
2021/01/26 04:59:09;;;;;;;21.17;11.07;;;1.10;85.00;;;;;;5106567;28;20391;-66
2021/01/26 05:02:10;;;;;;;15.18;8.05;;;1.20;84.70;;;;;;5105812;28;20050;-66
2021/01/26 05:04:42;;;;;;;15.40;7.47;;;1.20;84.20;;;;;;5079259;28;20078;-68
2021/01/26 05:07:20;;;;;;;12.85;7.30;;;1.20;84.10;;;;;;5105907;28;20024;-66
2021/01/26 05:10:14;;;;;;;13.88;8.32;;;1.20;84.30;;;;;;5105702;28;20119;-67
2021/01/26 05:12:44;;;;;;;16.95;9.70;;;1.20;84.40;;;;;;5075386;28;20046;-66
2021/01/26 05:15:16;;;;;;;19.55;10.25;;;1.20;84.40;;;;;;5105584;28;20024;-67
2021/01/26 05:17:48;;;;;;;25.40;12.70;;;1.20;84.20;;;;;;5105530;28;20097;-66
2021/01/26 05:20:21;;;;;;;22.08;12.35;;;1.20;84.30;;;;;;5087833;28;20510;-67
2021/01/26 05:23:12;;;;;;;21.58;11.55;;;1.10;84.80;;;;;;5105927;28;20023;-67
2021/01/26 05:25:38;;;;;;;22.08;12.18;;;1.10;85.20;;;;;;5105446;28;20469;-67
2021/01/26 05:28:03;;;;;;;;;;;1.10;85.70;;;;;;5087675;28;20031;-67
2021/01/26 05:30:37;;;;;;;36.83;17.98;;;1.10;86.00;;;;;;5105086;28;19922;-66
2021/01/26 05:33:10;;;;;;;66.82;27.70;;;1.10;86.30;;;;;;5106064;28;20102;-66
2021/01/26 05:35:39;;;;;;;80.40;33.28;;;1.10;86.60;;;;;;5105429;28;20028;-66
2021/01/26 05:38:05;;;;;;;62.78;27.42;;;1.10;86.70;;;;;;5107125;28;20028;-66
2021/01/26 05:40:37;;;;;;;47.40;22.00;;;1.10;86.70;;;;;;5108262;28;20035;-66
2021/01/26 05:43:05;;;;;;;36.42;17.95;;;1.10;86.50;;;;;;5090470;28;20031;-66
2021/01/26 05:45:44;;;;;;;32.42;16.05;;;1.10;86.30;;;;;;5107983;28;20044;-66
2021/01/26 05:48:18;;;;;;;37.75;17.33;;;1.10;86.00;;;;;;5107738;28;20035;-67
2021/01/26 05:50:45;;;;;;;47.92;20.40;;;1.10;85.80;;;;;;5108108;28;20128;-67
2021/01/26 05:53:32;;;;;;;48.97;19.77;;;1.10;85.70;;;;;;5107920;28;20514;-66
2021/01/26 05:56:11;;;;;;;;;;;1.10;85.50;;;;;;5108423;28;20974;-66
2021/01/26 05:58:43;;;;;;;37.53;15.48;;;1.10;85.10;;;;;;5108167;28;19915;-66
2021/01/26 06:01:11;;;;;;;33.03;13.35;;;1.10;85.20;;;;;;5107761;28;20495;-66
2021/01/26 06:03:37;;;;;;;31.40;12.57;;;1.10;85.10;;;;;;5107966;28;20116;-66
2021/01/26 06:06:17;;;;;;;;;;;1.10;85.20;;;;;;5108164;28;20102;-67
2021/01/26 06:08:57;;;;;;;33.05;15.07;;;1.10;85.10;;;;;;5106888;28;19919;-66
2021/01/26 06:11:31;;;;;;;25.75;12.05;;;1.10;85.00;;;;;;5088943;28;20114;-67
2021/01/26 06:14:11;;;;;;;17.48;8.38;;;1.10;84.60;;;;;;5107578;28;20034;-66
2021/01/26 06:16:36;;;;;;;20.08;9.80;;;1.10;84.30;;;;;;5107268;28;20035;-67
2021/01/26 06:19:03;;;;;;;;;;;1.10;83.90;;;;;;5107725;28;20640;-66
2021/01/26 06:21:30;;;;;;;104.72;38.80;;;1.20;83.60;;;;;;5106770;28;20580;-66
2021/01/26 06:23:57;;;;;;;42.03;17.50;;;1.30;84.00;;;;;;5107461;28;20103;-66
2021/01/26 06:26:34;;;;;;;20.77;9.65;;;1.30;84.00;;;;;;5107025;28;20035;-66
2021/01/26 06:29:28;;;;;;;19.88;9.55;;;1.30;84.40;;;;;;5107092;28;20238;-67
2021/01/26 06:31:59;;;;;;;25.10;9.43;;;1.20;85.00;;;;;;5106653;28;20027;-67
2021/01/26 06:34:56;;;;;;;14.90;7.85;;;1.20;85.50;;;;;;5106695;28;20032;-67
2021/01/26 06:37:31;;;;;;;15.07;8.27;;;1.20;85.90;;;;;;5107596;28;20031;-66
2021/01/26 06:40:15;;;;;;;15.05;7.78;;;1.20;86.40;;;;;;5108041;28;20035;-66
2021/01/26 06:43:05;;;;;;;14.30;7.90;;;1.10;86.70;;;;;;5101823;28;20229;-66
2021/01/26 06:45:51;;;;;;;13.80;7.05;;;1.10;86.90;;;;;;5107533;28;20024;-67
2021/01/26 06:48:26;;;;;;;15.63;8.30;;;1.10;87.20;;;;;;5089373;28;20044;-66
2021/01/26 06:51:15;;;;;;;13.27;7.55;;;1.10;87.60;;;;;;5107786;28;20036;-66
2021/01/26 06:54:04;;;;;;;17.25;8.77;;;1.10;87.80;;;;;;5107728;28;20063;-66
2021/01/26 06:56:32;;;;;;;44.03;16.70;;;1.20;87.90;;;;;;5065568;28;20654;-66
2021/01/26 06:59:20;;;;;;;67.72;25.92;;;1.10;87.90;;;;;;5106977;28;20049;-66
2021/01/26 07:02:02;;;;;;;58.95;23.48;;;1.10;88.40;;;;;;5088914;28;20090;-66
2021/01/26 07:05:05;;;;;;;67.13;29.02;;;1.10;88.70;;;;;;5107488;28;20028;-67
2021/01/26 07:07:40;;;;;;;63.15;28.58;;;1.20;88.80;;;;;;5089534;28;20085;-67
2021/01/26 07:10:20;;;;;;;74.43;35.40;;;1.20;88.80;;;;;;5107137;28;20046;-65
2021/01/26 07:12:55;;;;;;;108.18;48.63;;;1.20;88.40;;;;;;5106953;28;20113;-65
2021/01/26 07:16:01;;;;;;;111.65;52.75;;;1.20;88.30;;;;;;5106978;28;20123;-66
2021/01/26 07:18:27;;;;;;;94.97;42.90;;;1.30;88.50;;;;;;5023961;28;20037;-65
2021/01/26 07:21:08;;;;;;;;;;;1.30;88.10;;;;;;5024245;28;20030;-66
2021/01/26 07:23:57;;;;;;;55.63;26.17;;;1.40;87.20;;;;;;5072378;28;19929;-68
2021/01/26 07:26:59;;;;;;;49.35;24.65;;;1.40;86.60;;;;;;5106683;28;20373;-69
2021/01/26 07:29:56;;;;;;;44.92;22.98;;;1.50;86.50;;;;;;5106389;28;20055;-66
2021/01/26 07:32:28;;;;;;;;;;;1.50;86.30;;;;;;5091292;28;20088;-66
2021/01/26 07:35:28;;;;;;;46.20;22.05;;;1.60;86.60;;;;;;5088165;28;20076;-66
2021/01/26 07:38:00;;;;;;;46.97;23.33;;;1.60;86.70;;;;;;5062882;28;20048;-66
2021/01/26 07:40:36;;;;;;;44.72;22.20;;;1.70;86.80;;;;;;5106888;28;20019;-66
2021/01/26 07:43:26;;;;;;;40.20;18.52;;;1.70;86.30;;;;;;5106022;28;20040;-67
2021/01/26 07:46:05;;;;;;;39.70;20.50;;;1.80;85.90;;;;;;5105926;28;20126;-65
2021/01/26 07:49:01;;;;;;;36.33;18.08;;;1.90;85.50;;;;;;5106358;28;20109;-66
2021/01/26 07:51:36;;;;;;;34.37;16.87;;;1.90;85.40;;;;;;5104814;28;20034;-65
2021/01/26 07:54:26;;;;;;;33.47;16.73;;;2.00;85.60;;;;;;5106160;28;20042;-66
2021/01/26 07:56:53;;;;;;;26.30;15.40;;;2.10;85.60;;;;;;5088035;28;20039;-65
2021/01/26 07:59:25;;;;;;;33.20;17.13;;;2.20;85.40;;;;;;5105973;28;20560;-68
2021/01/26 08:02:04;;;;;;;27.20;15.10;;;2.30;84.90;;;;;;5106447;28;20024;-66
2021/01/26 08:04:42;;;;;;;26.45;14.15;;;2.40;84.40;;;;;;5088361;28;20542;-67
2021/01/26 08:07:09;;;;;;;32.53;18.58;;;2.50;84.40;;;;;;5104850;28;20027;-67
2021/01/26 08:09:47;;;;;;;38.08;19.90;;;2.50;83.60;;;;;;5106409;28;20111;-67
2021/01/26 08:12:20;;;;;;;65.45;33.83;;;2.70;83.00;;;;;;5087531;28;20027;-67
2021/01/26 08:14:50;;;;;;;62.10;31.33;;;2.90;82.30;;;;;;5105817;28;20190;-67
2021/01/26 08:17:28;;;;;;;63.95;31.75;;;3.10;80.70;;;;;;5105670;28;20019;-65
2021/01/26 08:20:01;;;;;;;36.78;18.30;;;3.20;78.90;;;;;;5105372;28;20071;-66
2021/01/26 08:22:42;;;;;;;17.92;9.00;;;3.40;75.70;;;;;;5105767;28;20063;-65
2021/01/26 08:25:30;;;;;;;12.18;5.50;;;3.60;71.40;;;;;;5087647;28;20035;-65
2021/01/26 08:28:03;;;;;;;16.92;7.95;;;3.80;67.40;;;;;;5105793;28;20609;-65
2021/01/26 08:30:53;;;;;;;17.83;8.23;;;3.90;66.90;;;;;;5106031;28;20055;-66
2021/01/26 08:33:25;;;;;;;16.75;7.60;;;3.90;65.20;;;;;;5110446;28;20035;-66
2021/01/26 08:36:08;;;;;;;30.75;17.42;;;4.00;64.70;;;;;;5110358;28;20031;-66
2021/01/26 08:38:42;;;;;;;40.20;25.95;;;4.00;64.30;;;;;;5109900;28;20062;-67
2021/01/26 08:41:08;;;;;;;35.50;20.85;;;4.20;65.60;;;;;;5110370;28;20484;-66
2021/01/26 08:43:44;;;;;;;;;;;4.60;64.40;;;;;;5109915;28;20035;-67
2021/01/26 08:46:10;;;;;;;25.35;12.75;;;5.00;63.00;;;;;;5091966;28;19996;-66
2021/01/26 08:48:37;;;;;;;21.75;10.40;;;5.30;61.20;;;;;;5109320;28;20115;-66
2021/01/26 08:51:06;;;;;;;16.85;7.43;;;5.70;59.70;;;;;;5110171;28;20476;-67
2021/01/26 08:53:38;;;;;;;24.25;9.70;;;5.80;58.40;;;;;;5091642;28;20027;-67
2021/01/26 08:56:33;;;;;;;22.42;9.75;;;5.60;57.10;;;;;;5091480;28;20034;-66
2021/01/26 08:59:00;;;;;;;17.38;9.38;;;5.30;57.80;;;;;;5090472;28;20048;-67
2021/01/26 09:01:35;;;;;;;23.83;10.35;;;4.90;59.10;;;;;;5109891;28;20081;-67
2021/01/26 09:04:13;;;;;;;16.45;7.93;;;4.70;59.00;;;;;;5109811;28;20032;-66
2021/01/26 09:06:38;;;;;;;12.27;5.90;;;4.60;60.20;;;;;;5091394;28;20093;-66
2021/01/26 09:09:24;;;;;;;;;;;4.60;58.80;;;;;;5110240;28;20089;-67
2021/01/26 09:12:05;;;;;;;9.55;5.22;;;4.60;58.50;;;;;;5090467;28;19907;-66
2021/01/26 09:14:46;;;;;;;14.18;7.15;;;4.50;58.00;;;;;;5109202;28;20063;-67
2021/01/26 09:17:21;;;;;;;15.35;7.20;;;4.50;56.50;;;;;;5109675;28;20064;-66
2021/01/26 09:20:05;;;;;;;15.00;6.28;;;4.40;57.20;;;;;;5109179;28;20019;-66
2021/01/26 09:22:32;;;;;;;17.15;7.82;;;4.40;57.40;;;;;;5090926;28;20048;-66
2021/01/26 09:25:02;;;;;;;24.15;9.25;;;4.50;57.10;;;;;;5109297;28;20036;-66
2021/01/26 09:27:32;;;;;;;12.07;5.35;;;4.60;55.50;;;;;;5108756;28;20027;-68
2021/01/26 09:30:12;;;;;;;10.65;6.03;;;4.80;53.10;;;;;;5091064;28;20116;-66
2021/01/26 09:32:40;;;;;;;11.57;5.38;;;4.80;53.80;;;;;;5109767;28;20023;-67
2021/01/26 09:35:23;;;;;;;8.27;4.13;;;4.80;53.80;;;;;;5108735;28;20331;-67
2021/01/26 09:38:06;;;;;;;11.95;5.63;;;4.90;54.70;;;;;;5109257;28;20030;-68
2021/01/26 09:40:32;;;;;;;9.82;4.82;;;4.90;54.20;;;;;;5109679;28;20089;-68
2021/01/26 09:43:26;;;;;;;8.80;4.60;;;5.00;55.10;;;;;;5107820;28;20039;-67
2021/01/26 09:45:54;;;;;;;8.80;4.20;;;5.20;52.40;;;;;;5105776;28;20047;-67
2021/01/26 09:48:29;;;;;;;6.47;3.22;;;5.20;52.40;;;;;;5108969;28;20063;-67
2021/01/26 09:51:04;;;;;;;7.65;3.55;;;5.40;51.20;;;;;;5091075;28;20282;-67
2021/01/26 09:53:30;;;;;;;9.75;3.33;;;5.40;51.50;;;;;;5108896;28;20487;-67
2021/01/26 09:55:55;;;;;;;;;;;5.40;52.30;;;;;;5108776;28;20047;-67
2021/01/26 09:58:22;;;;;;;13.43;6.25;;;5.50;52.40;;;;;;5107353;28;19939;-67
2021/01/26 10:00:48;;;;;;;;;;;5.60;52.10;;;;;;5109294;28;20040;-67
2021/01/26 10:03:19;;;;;;;16.08;6.13;;;5.70;50.90;;;;;;5090271;28;19907;-68
2021/01/26 10:05:45;;;;;;;16.35;6.70;;;5.70;51.30;;;;;;5108609;28;20019;-68
2021/01/26 10:08:12;;;;;;;;;;;5.70;51.80;;;;;;5108330;28;20024;-68
2021/01/26 10:10:38;;;;;;;;;;;5.70;54.10;;;;;;5090652;28;19914;-68
2021/01/26 10:13:24;;;;;;;12.97;6.63;;;5.70;54.20;;;;;;5107964;28;19947;-67
2021/01/26 10:15:50;;;;;;;7.22;4.07;;;5.70;53.80;;;;;;5107563;28;20276;-68
2021/01/26 10:18:17;;;;;;;;;;;5.70;53.10;;;;;;5108924;28;20035;-68
2021/01/26 10:20:45;;;;;;;;;;;5.60;50.30;;;;;;5108930;28;19908;-68
2021/01/26 10:23:20;;;;;;;9.77;4.18;;;5.60;50.00;;;;;;5108225;28;19907;-68
2021/01/26 10:25:46;;;;;;;11.90;5.50;;;5.70;50.40;;;;;;5108143;28;20081;-68
2021/01/26 10:28:25;;;;;;;7.47;3.80;;;5.90;50.40;;;;;;5107012;28;20412;-67
2021/01/26 10:30:51;;;;;;;5.03;2.20;;;6.20;49.70;;;;;;5107791;28;20034;-69
2021/01/26 10:33:41;;;;;;;6.40;3.13;;;6.50;45.80;;;;;;5107897;28;20168;-68
2021/01/26 10:36:28;;;;;;;5.65;2.13;;;6.60;44.20;;;;;;5089114;28;20032;-67
2021/01/26 10:38:56;;;;;;;5.32;2.33;;;6.60;45.30;;;;;;5107601;28;20077;-68
2021/01/26 10:41:33;;;;;;;6.78;3.03;;;6.60;45.60;;;;;;5107612;28;20027;-67
2021/01/26 10:44:08;;;;;;;5.90;3.35;;;6.60;42.20;;;;;;5106981;28;20027;-67
2021/01/26 10:46:39;;;;;;;7.93;3.50;;;6.40;41.20;;;;;;5107875;28;20028;-68
2021/01/26 10:49:21;;;;;;;8.05;3.60;;;6.10;42.60;;;;;;5107603;28;20047;-69
2021/01/26 10:51:46;;;;;;;5.03;2.10;;;6.00;41.90;;;;;;5107516;28;20043;-68
2021/01/26 10:54:12;;;;;;;;;;;5.90;42.90;;;;;;5107652;28;20150;-67
2021/01/26 10:56:38;;;;;;;13.82;5.43;;;5.70;43.50;;;;;;5107416;28;20276;-68
2021/01/26 10:59:04;;;;;;;;;;;5.70;46.70;;;;;;5107806;28;20448;-67
2021/01/26 11:01:30;;;;;;;6.68;3.00;;;5.80;48.70;;;;;;5089131;28;19907;-68
2021/01/26 11:03:55;;;;;;;;;;;5.80;50.40;;;;;;5108005;28;20023;-68
2021/01/26 11:06:23;;;;;;;6.65;2.63;;;5.80;49.00;;;;;;5107591;28;19912;-68
2021/01/26 11:08:50;;;;;;;5.40;2.78;;;5.80;48.50;;;;;;5106979;28;20503;-68
2021/01/26 11:11:24;;;;;;;6.50;2.92;;;5.70;47.10;;;;;;5107670;28;20438;-68
2021/01/26 11:13:51;;;;;;;5.95;3.13;;;5.70;49.10;;;;;;5107100;28;20558;-67
2021/01/26 11:16:16;;;;;;;5.88;3.15;;;5.80;49.40;;;;;;5105358;28;20050;-66
2021/01/26 11:18:42;;;;;;;;;;;5.80;49.00;;;;;;5087820;28;20031;-67
2021/01/26 11:21:09;;;;;;;4.53;2.42;;;5.70;46.10;;;;;;5102754;28;19919;-66
2021/01/26 11:23:34;;;;;;;5.95;2.80;;;5.60;46.90;;;;;;5104113;27;20039;-66
2021/01/26 11:26:05;;;;;;;;;;;5.50;47.50;;;;;;5104503;28;20054;-66
2021/01/26 11:28:31;;;;;;;5.65;2.42;;;5.60;48.60;;;;;;5102517;28;20013;-67
2021/01/26 11:30:57;;;;;;;;;;;5.60;49.10;;;;;;5105145;28;20169;-66
2021/01/26 11:33:22;;;;;;;7.13;2.88;;;5.60;48.80;;;;;;5106049;28;19916;-66
2021/01/26 11:35:48;;;;;;;;;;;5.70;49.60;;;;;;5088088;28;20028;-65
2021/01/26 11:38:14;;;;;;;7.10;2.10;;;5.70;49.50;;;;;;5105965;28;19927;-66
2021/01/26 11:40:40;;;;;;;4.82;2.15;;;5.80;48.50;;;;;;5105758;28;20403;-67
2021/01/26 11:43:05;;;;;;;;;;;5.70;48.10;;;;;;5106108;28;20388;-67
2021/01/26 11:45:36;;;;;;;5.60;2.08;;;5.80;47.30;;;;;;5105935;28;20399;-68
2021/01/26 11:48:07;;;;;;;5.43;2.70;;;5.80;47.20;;;;;;5105720;28;20043;-68
2021/01/26 11:50:35;;;;;;;3.55;1.65;;;5.70;47.00;;;;;;5105092;28;20196;-66
2021/01/26 11:53:04;;;;;;;6.43;2.28;;;5.70;46.50;;;;;;5087130;28;20048;-67
2021/01/26 11:55:31;;;;;;;5.13;2.13;;;5.60;47.50;;;;;;5085478;28;20043;-66
2021/01/26 11:57:57;;;;;;;4.65;2.22;;;5.50;47.50;;;;;;5104370;28;20478;-68
2021/01/26 12:00:24;;;;;;;;;;;5.50;48.40;;;;;;5105015;28;20055;-68
2021/01/26 12:02:50;;;;;;;6.45;2.95;;;5.40;49.30;;;;;;5104803;28;19915;-67
2021/01/26 12:05:16;;;;;;;;;;;5.40;50.60;;;;;;5083979;28;20044;-67
2021/01/26 12:07:42;;;;;;;7.50;3.13;;;5.30;49.90;;;;;;5104154;28;20390;-67
2021/01/26 12:10:08;;;;;;;;;;;5.20;50.10;;;;;;5105205;27;20043;-68
2021/01/26 12:12:34;;;;;;;6.07;2.72;;;5.10;50.60;;;;;;5103935;28;20430;-68
2021/01/26 12:14:59;;;;;;;;;;;5.10;50.30;;;;;;5105021;28;20043;-68
2021/01/26 12:17:25;;;;;;;4.80;2.47;;;5.10;51.40;;;;;;5104285;28;19912;-67
2021/01/26 12:19:52;;;;;;;5.72;2.50;;;5.20;50.40;;;;;;5105134;28;20582;-67
2021/01/26 12:22:18;;;;;;;6.78;3.20;;;5.10;50.00;;;;;;5104060;28;20055;-68
2021/01/26 12:24:44;;;;;;;;;;;4.90;50.50;;;;;;5105459;28;20039;-69
2021/01/26 12:27:09;;;;;;;9.25;4.45;;;4.90;50.80;;;;;;5104441;28;19920;-68
2021/01/26 12:29:35;;;;;;;6.20;3.03;;;4.90;51.20;;;;;;5104884;28;20111;-66
2021/01/26 12:32:01;;;;;;;6.05;2.88;;;4.90;52.00;;;;;;5101006;28;20044;-66
2021/01/26 12:34:26;;;;;;;;;;;4.80;52.30;;;;;;5104092;28;20771;-67
2021/01/26 12:36:53;;;;;;;4.78;2.53;;;4.80;53.10;;;;;;5100983;28;19957;-67
2021/01/26 12:39:20;;;;;;;3.83;2.15;;;4.90;51.60;;;;;;5103724;28;20119;-67
2021/01/26 12:41:46;;;;;;;5.68;2.70;;;4.80;52.40;;;;;;5103321;28;20043;-66
2021/01/26 12:44:12;;;;;;;;;;;4.80;52.20;;;;;;5104390;28;20399;-67
2021/01/26 12:46:41;;;;;;;5.93;2.55;;;4.80;51.80;;;;;;5104380;27;19916;-67
2021/01/26 12:49:07;;;;;;;17.75;6.95;;;4.80;51.80;;;;;;5104932;28;20039;-68
2021/01/26 12:51:32;;;;;;;17.00;13.52;;;4.70;52.50;;;;;;5104864;28;20044;-67
2021/01/26 12:53:58;;;;;;;;;;;4.80;52.80;;;;;;5087065;28;20040;-65
2021/01/26 12:56:24;;;;;;;5.78;3.00;;;4.70;52.90;;;;;;5103896;28;19912;-67
2021/01/26 12:58:49;;;;;;;;;;;4.80;52.20;;;;;;5105511;28;20503;-66
2021/01/26 13:01:15;;;;;;;9.13;2.63;;;4.80;52.20;;;;;;5100750;28;19965;-66
2021/01/26 13:03:41;;;;;;;;;;;4.80;52.70;;;;;;5105792;28;20043;-66
2021/01/26 13:06:06;;;;;;;6.05;2.10;;;4.80;52.00;;;;;;5105031;28;20014;-67
2021/01/26 13:08:32;;;;;;;;;;;4.70;52.00;;;;;;5101292;28;20118;-66
2021/01/26 13:10:58;;;;;;;5.38;3.22;;;4.80;51.50;;;;;;5104740;28;19926;-66
2021/01/26 13:13:23;;;;;;;;;;;4.70;51.80;;;;;;5105374;28;20526;-67
2021/01/26 13:15:49;;;;;;;6.38;3.65;;;4.70;52.40;;;;;;5087038;28;19926;-67
2021/01/26 13:18:15;;;;;;;;;;;4.80;52.10;;;;;;5090491;28;20476;-67
2021/01/26 13:20:41;;;;;;;6.05;2.63;;;4.80;51.40;;;;;;5107334;28;20060;-67
2021/01/26 13:23:09;;;;;;;6.25;4.20;;;4.80;52.00;;;;;;5108853;28;20373;-67
2021/01/26 13:25:35;;;;;;;7.32;3.97;;;4.90;52.10;;;;;;5089867;28;20032;-66
2021/01/26 13:28:02;;;;;;;;;;;4.80;52.50;;;;;;5108299;28;20407;-66
2021/01/26 13:30:29;;;;;;;5.13;2.90;;;4.80;52.00;;;;;;5086961;28;20027;-67
2021/01/26 13:32:55;;;;;;;6.70;3.10;;;4.70;51.80;;;;;;5107099;28;20039;-68
2021/01/26 13:35:22;;;;;;;;;;;4.60;52.60;;;;;;5107166;28;20494;-68